createdAt,value
2018-02-08T00:11:44.909Z,46.47
2018-02-08T00:14:13.707Z,41.45
2018-02-08T00:16:42.577Z,43.95
2018-02-08T00:19:10.679Z,47.15
2018-02-08T00:21:39.795Z,46.17
2018-02-08T00:24:09.844Z,44.90
2018-02-08T00:26:38.329Z,44.83
2018-02-08T00:29:07.728Z,44.83
2018-02-08T00:31:37.295Z,45.35
2018-02-08T00:51:22.896Z,46.40
2018-02-08T00:53:51.647Z,44.05
2018-02-08T00:56:21.048Z,44.10
2018-02-08T00:58:49.752Z,46.72
2018-02-08T01:01:18.099Z,47.50
2018-02-08T01:03:46.936Z,47.92
2018-02-08T01:06:15.059Z,43.20
2018-02-08T01:08:44.082Z,47.95
2018-02-08T01:11:13.047Z,46.58
2018-02-08T01:30:59.153Z,45.30
2018-02-08T01:33:28.220Z,44.10
2018-02-08T01:35:57.438Z,46.00
2018-02-08T01:38:27.087Z,45.28
2018-02-08T01:40:56.726Z,42.42
2018-02-08T01:43:26.353Z,43.20
2018-02-08T01:45:55.440Z,46.15
2018-02-08T01:48:23.539Z,44.45
2018-02-08T01:50:52.035Z,48.87
2018-02-08T02:10:40.564Z,48.63
2018-02-08T02:13:09.534Z,48.65
2018-02-08T02:15:38.112Z,47.42
2018-02-08T02:18:06.179Z,50.95
2018-02-08T02:20:34.752Z,51.50
2018-02-08T02:23:03.345Z,49.97
2018-02-08T02:25:32.128Z,51.78
2018-02-08T02:28:01.200Z,51.78
2018-02-08T02:30:30.023Z,46.42
2018-02-08T02:50:16.841Z,45.00
2018-02-08T02:52:45.737Z,42.50
2018-02-08T02:55:15.001Z,42.75
2018-02-08T02:57:44.324Z,44.20
2018-02-08T03:00:13.713Z,44.28
2018-02-08T03:02:42.391Z,45.83
2018-02-08T03:05:10.661Z,50.58
2018-02-08T03:07:39.154Z,44.97
2018-02-08T03:10:07.558Z,49.35
2018-02-08T03:29:53.797Z,40.90
2018-02-08T03:32:23.051Z,41.75
2018-02-08T03:34:51.824Z,46.37
2018-02-08T03:37:21.207Z,47.33
2018-02-08T03:39:50.089Z,46.17
2018-02-08T03:42:18.887Z,47.28
2018-02-08T03:44:47.587Z,43.33
2018-02-08T03:47:16.230Z,45.30
2018-02-08T03:49:44.946Z,45.15
2018-02-08T04:09:31.224Z,42.55
2018-02-08T04:11:59.709Z,43.30
2018-02-08T04:14:28.091Z,44.25
2018-02-08T04:16:57.677Z,48.42
2018-02-08T04:19:26.331Z,47.85
2018-02-08T04:21:55.035Z,47.28
2018-02-08T04:24:23.790Z,46.65
2018-02-08T04:26:52.054Z,40.05
2018-02-08T04:29:21.601Z,42.13
2018-02-08T04:49:07.440Z,36.92
2018-02-08T04:51:36.102Z,42.25
2018-02-08T04:54:05.419Z,41.60
2018-02-08T04:56:33.578Z,42.05
2018-02-08T04:59:03.246Z,44.22
2018-02-08T05:01:31.902Z,43.08
2018-02-08T05:04:01.169Z,43.70
2018-02-08T05:06:30.065Z,46.03
2018-02-08T05:08:59.082Z,43.80
2018-02-08T05:28:45.469Z,43.35
2018-02-08T05:31:14.226Z,42.90
2018-02-08T05:33:43.244Z,41.55
2018-02-08T05:36:11.484Z,40.63
2018-02-08T05:38:39.970Z,43.08
2018-02-08T05:41:09.845Z,42.72
2018-02-08T05:43:38.123Z,45.60
2018-02-08T05:46:07.015Z,45.50
2018-02-08T05:48:36.302Z,37.35
2018-02-08T06:08:21.938Z,43.30
2018-02-08T06:10:51.041Z,42.03
2018-02-08T06:13:20.180Z,45.10
2018-02-08T06:15:48.389Z,42.75
2018-02-08T06:18:17.936Z,42.80
2018-02-08T06:20:46.954Z,39.13
2018-02-08T06:23:15.049Z,39.90
2018-02-08T06:25:44.601Z,37.67
2018-02-08T06:28:13.870Z,38.20
2018-02-08T06:48:01.204Z,40.00
2018-02-08T06:50:30.282Z,39.47
2018-02-08T06:52:59.252Z,39.90
2018-02-08T06:55:28.200Z,44.05
2018-02-08T06:57:56.856Z,41.30
2018-02-08T07:00:25.849Z,40.35
2018-02-08T07:02:54.008Z,42.95
2018-02-08T07:05:22.873Z,39.90
2018-02-08T07:07:51.049Z,39.17
2018-02-08T07:27:35.304Z,33.83
2018-02-08T07:30:04.932Z,42.55
2018-02-08T07:32:34.164Z,42.95
2018-02-08T07:35:02.595Z,40.92
2018-02-08T07:37:31.843Z,35.90
2018-02-08T07:40:00.538Z,38.33
2018-02-08T07:42:29.865Z,31.60
2018-02-08T07:44:58.474Z,37.58
2018-02-08T07:47:27.495Z,40.00
2018-02-08T08:07:15.168Z,40.58
2018-02-08T08:09:44.475Z,43.38
2018-02-08T08:12:13.724Z,36.20
2018-02-08T08:14:43.341Z,33.95
2018-02-08T08:17:11.903Z,38.10
2018-02-08T08:19:40.388Z,39.00
2018-02-08T08:22:09.499Z,41.08
2018-02-08T08:24:38.218Z,40.15
2018-02-08T08:27:06.444Z,43.80
2018-02-08T08:46:51.274Z,41.17
2018-02-08T08:49:19.584Z,39.55
2018-02-08T08:51:48.032Z,41.17
2018-02-08T08:54:16.226Z,40.15
2018-02-08T08:56:44.850Z,41.60
2018-02-08T08:59:13.811Z,37.17
2018-02-08T09:01:43.342Z,39.40
2018-02-08T09:04:12.978Z,40.47
2018-02-08T09:06:43.218Z,43.28
2018-02-08T09:26:29.027Z,41.00
2018-02-08T09:28:58.177Z,39.58
2018-02-08T09:31:26.613Z,41.35
2018-02-08T09:33:54.836Z,39.92
2018-02-08T09:36:24.414Z,37.30
2018-02-08T09:38:52.803Z,40.25
2018-02-08T09:41:22.124Z,38.65
2018-02-08T09:43:51.250Z,36.95
2018-02-08T09:46:19.736Z,34.45
2018-02-08T10:06:04.044Z,41.58
2018-02-08T10:08:32.329Z,36.45
2018-02-08T10:11:01.018Z,35.65
2018-02-08T10:13:30.053Z,36.30
2018-02-08T10:15:59.679Z,40.15
2018-02-08T10:18:28.698Z,38.38
2018-02-08T10:20:58.489Z,36.30
2018-02-08T10:23:28.857Z,39.63
2018-02-08T10:25:58.661Z,39.28
2018-02-08T10:45:42.672Z,38.00
2018-02-08T10:48:11.088Z,40.60
2018-02-08T10:50:40.189Z,39.83
2018-02-08T10:53:09.329Z,40.53
2018-02-08T10:55:38.453Z,42.70
2018-02-08T10:58:07.305Z,40.20
2018-02-08T11:00:35.984Z,38.13
2018-02-08T11:03:05.202Z,42.07
2018-02-08T11:05:35.256Z,41.23
2018-02-08T11:25:21.532Z,38.80
2018-02-08T11:27:51.466Z,39.50
2018-02-08T11:30:20.139Z,42.27
2018-02-08T11:32:49.125Z,43.83
2018-02-08T11:35:18.464Z,40.23
2018-02-08T11:37:47.105Z,42.17
2018-02-08T11:40:16.547Z,41.97
2018-02-08T11:42:45.389Z,39.60
2018-02-08T11:45:15.138Z,40.92
2018-02-08T12:05:01.017Z,38.73
2018-02-08T12:07:29.758Z,42.23
2018-02-08T12:09:59.058Z,36.27
2018-02-08T12:12:28.182Z,41.20
2018-02-08T12:14:56.538Z,38.33
2018-02-08T12:17:26.349Z,38.10
2018-02-08T12:19:56.032Z,41.27
2018-02-08T12:22:25.646Z,41.57
2018-02-08T12:24:55.301Z,41.73
2018-02-08T12:44:43.166Z,41.87
2018-02-08T12:47:11.892Z,41.60
2018-02-08T12:49:41.050Z,44.57
2018-02-08T12:52:09.292Z,40.10
2018-02-08T12:54:38.201Z,43.47
2018-02-08T12:57:07.740Z,41.90
2018-02-08T12:59:37.477Z,42.50
2018-02-08T13:02:06.634Z,40.70
2018-02-08T13:04:36.086Z,45.47
2018-02-08T13:24:21.497Z,40.70
2018-02-08T13:26:50.794Z,43.53
2018-02-08T13:29:20.028Z,41.97
2018-02-08T13:31:50.347Z,38.80
2018-02-08T13:34:19.406Z,39.33
2018-02-08T13:36:47.687Z,41.07
2018-02-08T13:39:16.045Z,39.57
2018-02-08T13:41:45.513Z,39.20
2018-02-08T14:01:31.790Z,33.42
2018-02-08T14:04:00.532Z,37.40
2018-02-08T14:06:29.013Z,38.45
2018-02-08T14:08:59.000Z,40.72
2018-02-08T14:11:27.670Z,41.00
2018-02-08T14:13:57.001Z,38.87
2018-02-08T14:16:26.649Z,39.47
2018-02-08T14:19:01.103Z,41.72
2018-02-08T14:41:41.995Z,40.47
2018-02-08T14:44:12.291Z,42.67
2018-02-08T15:02:03.417Z,41.63
2018-02-08T15:04:32.850Z,43.10
2018-02-08T15:07:01.731Z,41.53
2018-02-08T15:09:30.808Z,37.65
2018-02-08T15:29:15.528Z,39.58
2018-02-08T15:31:44.292Z,38.00
2018-02-08T15:34:22.492Z,40.47
2018-02-08T15:36:51.047Z,43.80
2018-02-08T15:39:21.130Z,44.53
2018-02-08T15:41:50.244Z,42.67
2018-02-08T15:44:18.485Z,40.47
2018-02-08T15:46:47.414Z,37.95
2018-02-08T16:06:32.222Z,41.85
2018-02-08T16:09:00.410Z,39.40
2018-02-08T16:11:29.965Z,38.35
2018-02-08T16:13:58.163Z,43.55
2018-02-08T16:16:26.789Z,41.55
2018-02-08T16:18:55.924Z,41.13
2018-02-08T16:21:24.436Z,41.90
2018-02-08T16:23:52.559Z,44.70
2018-02-08T16:26:20.905Z,45.20
2018-02-08T16:46:04.687Z,45.25
2018-02-08T16:48:34.075Z,42.25
2018-02-08T16:51:03.552Z,45.30
2018-02-08T16:53:32.406Z,42.08
2018-02-08T16:56:01.908Z,37.78
2018-02-08T16:58:30.738Z,46.78
2018-02-08T17:00:59.997Z,44.78
2018-02-08T17:03:29.622Z,48.60
2018-02-08T17:05:58.236Z,44.97
2018-02-08T17:25:43.203Z,45.92
2018-02-08T17:28:11.544Z,48.67
2018-02-08T17:30:39.993Z,45.90
2018-02-08T17:33:09.406Z,45.45
2018-02-08T17:35:38.136Z,49.85
2018-02-08T17:38:07.267Z,48.38
2018-02-08T17:40:36.424Z,47.20
2018-02-08T17:43:05.482Z,49.63
2018-02-08T17:45:34.775Z,46.25
2018-02-08T18:05:19.282Z,48.75
2018-02-08T18:07:47.396Z,50.22
2018-02-08T18:10:15.921Z,52.65
2018-02-08T18:12:44.367Z,51.55
2018-02-08T18:15:13.797Z,50.72
2018-02-08T18:17:42.459Z,48.97
2018-02-08T18:20:11.892Z,49.30
2018-02-08T18:22:40.533Z,50.45
2018-02-08T18:25:09.395Z,49.63
2018-02-08T18:44:54.306Z,48.75
2018-02-08T18:47:23.408Z,51.97
2018-02-08T18:49:52.375Z,51.17
2018-02-08T18:52:21.306Z,53.42
2018-02-08T18:54:50.507Z,55.08
2018-02-08T18:57:19.171Z,57.35
2018-02-08T18:59:49.125Z,51.97
2018-02-08T19:02:17.522Z,54.45
2018-02-08T19:04:47.009Z,51.13
2018-02-08T19:24:31.926Z,51.90
2018-02-08T19:27:01.438Z,47.00
2018-02-08T19:29:30.005Z,51.78
2018-02-08T19:31:58.971Z,52.72
2018-02-08T19:34:28.367Z,50.05
2018-02-08T19:36:56.952Z,50.03
2018-02-08T19:39:30.927Z,51.42
2018-02-08T19:41:59.831Z,52.58
2018-02-08T20:05:39.144Z,50.55
2018-02-08T20:08:07.873Z,50.42
2018-02-08T20:10:36.204Z,52.00
2018-02-08T20:13:05.455Z,52.30
2018-02-08T20:15:35.586Z,51.70
2018-02-08T20:18:03.781Z,56.65
2018-02-08T20:20:32.280Z,53.05
2018-02-08T20:23:01.022Z,53.42
2018-02-08T20:25:29.221Z,52.85
2018-02-08T20:45:14.264Z,51.88
2018-02-08T20:47:42.522Z,53.38
2018-02-08T20:50:11.077Z,57.08
2018-02-08T20:52:39.432Z,62.85
2018-02-08T20:55:08.684Z,57.67
2018-02-08T20:57:36.873Z,58.38
2018-02-08T21:00:06.065Z,54.53
2018-02-08T21:02:34.652Z,57.72
2018-02-08T21:05:03.823Z,58.53
2018-02-08T21:24:49.852Z,57.60
2018-02-08T21:27:18.014Z,63.03
2018-02-08T21:29:46.731Z,58.05
2018-02-08T21:32:15.944Z,55.17
2018-02-08T21:34:44.637Z,58.08
2018-02-08T21:37:14.573Z,56.95
2018-02-08T21:39:43.585Z,56.67
2018-02-08T21:42:12.443Z,53.65
2018-02-08T21:44:41.257Z,58.47
2018-02-08T22:04:27.400Z,52.45
2018-02-08T22:06:56.587Z,50.30
2018-02-08T22:09:25.311Z,52.75
2018-02-08T22:11:53.279Z,51.17
2018-02-08T22:14:21.336Z,47.42
2018-02-08T22:16:49.516Z,47.85
2018-02-08T22:19:18.644Z,48.40
2018-02-08T22:21:47.078Z,47.35
2018-02-08T22:24:15.565Z,46.17
2018-02-08T22:44:01.276Z,47.45
2018-02-08T22:46:30.041Z,48.90
2018-02-08T22:48:58.528Z,48.20
2018-02-08T22:51:26.694Z,49.17
2018-02-08T22:53:55.811Z,51.53
2018-02-08T22:56:24.291Z,49.42
2018-02-08T22:58:52.993Z,51.85
2018-02-08T23:01:21.327Z,53.78
2018-02-08T23:03:49.635Z,53.33
2018-02-08T23:23:37.475Z,48.45
2018-02-08T23:26:07.781Z,46.67
2018-02-08T23:28:37.122Z,47.20
2018-02-08T23:31:05.459Z,48.08
2018-02-08T23:33:34.715Z,49.17
2018-02-08T23:36:03.394Z,47.62
2018-02-08T23:38:32.300Z,47.33
2018-02-08T23:41:00.735Z,49.00
2018-02-08T23:43:29.272Z,47.17
